sensor_id;sensor_type;location;lat;lon;timestamp;temperature;humidity
16700;DHT22;8466;52.286;21.124;2023-05-27T00:00:35;8.80;99.90
16700;DHT22;8466;52.286;21.124;2023-05-27T00:03:04;8.80;99.90
16700;DHT22;8466;52.286;21.124;2023-05-27T00:05:32;8.80;99.90
16700;DHT22;8466;52.286;21.124;2023-05-27T00:08:01;8.70;99.90
16700;DHT22;8466;52.286;21.124;2023-05-27T00:10:31;8.80;99.90
16700;DHT22;8466;52.286;21.124;2023-05-27T00:13:00;8.80;99.90
16700;DHT22;8466;52.286;21.124;2023-05-27T00:15:28;8.80;99.90
16700;DHT22;8466;52.286;21.124;2023-05-27T00:17:58;8.70;99.90
16700;DHT22;8466;52.286;21.124;2023-05-27T00:20:27;8.60;99.90
16700;DHT22;8466;52.286;21.124;2023-05-27T00:22:57;8.70;99.90
16700;DHT22;8466;52.286;21.124;2023-05-27T00:25:27;8.70;99.90
16700;DHT22;8466;52.286;21.124;2023-05-27T00:27:58;8.70;99.90
16700;DHT22;8466;52.286;21.124;2023-05-27T00:30:26;8.50;99.90
16700;DHT22;8466;52.286;21.124;2023-05-27T00:32:55;8.50;99.90
16700;DHT22;8466;52.286;21.124;2023-05-27T00:35:24;8.30;99.90
16700;DHT22;8466;52.286;21.124;2023-05-27T00:37:53;8.30;99.90
16700;DHT22;8466;52.286;21.124;2023-05-27T00:40:23;8.40;99.90
16700;DHT22;8466;52.286;21.124;2023-05-27T00:42:53;8.30;99.90
16700;DHT22;8466;52.286;21.124;2023-05-27T00:45:23;8.30;99.90
16700;DHT22;8466;52.286;21.124;2023-05-27T00:47:52;8.30;99.90
16700;DHT22;8466;52.286;21.124;2023-05-27T00:50:21;8.30;99.90
16700;DHT22;8466;52.286;21.124;2023-05-27T00:52:52;8.20;99.90
16700;DHT22;8466;52.286;21.124;2023-05-27T00:55:22;8.20;99.90
16700;DHT22;8466;52.286;21.124;2023-05-27T00:57:51;8.10;99.90
16700;DHT22;8466;52.286;21.124;2023-05-27T01:00:23;8.10;99.90
16700;DHT22;8466;52.286;21.124;2023-05-27T01:02:52;8.00;99.90
16700;DHT22;8466;52.286;21.124;2023-05-27T01:05:21;8.00;99.90
16700;DHT22;8466;52.286;21.124;2023-05-27T01:07:59;7.90;99.90
16700;DHT22;8466;52.286;21.124;2023-05-27T01:10:38;7.90;99.90
16700;DHT22;8466;52.286;21.124;2023-05-27T01:13:14;7.80;99.90
16700;DHT22;8466;52.286;21.124;2023-05-27T01:15:47;7.70;99.90
16700;DHT22;8466;52.286;21.124;2023-05-27T01:18:16;7.70;99.90
16700;DHT22;8466;52.286;21.124;2023-05-27T01:20:47;7.60;99.90
16700;DHT22;8466;52.286;21.124;2023-05-27T01:23:18;7.60;99.90
16700;DHT22;8466;52.286;21.124;2023-05-27T01:25:47;7.60;99.90
16700;DHT22;8466;52.286;21.124;2023-05-27T01:28:16;7.60;99.90
16700;DHT22;8466;52.286;21.124;2023-05-27T01:30:44;7.60;99.90
16700;DHT22;8466;52.286;21.124;2023-05-27T01:33:17;7.50;99.90
16700;DHT22;8466;52.286;21.124;2023-05-27T01:35:52;7.40;99.90
16700;DHT22;8466;52.286;21.124;2023-05-27T01:38:25;7.50;99.90
16700;DHT22;8466;52.286;21.124;2023-05-27T01:40:55;7.50;99.90
16700;DHT22;8466;52.286;21.124;2023-05-27T01:43:24;7.60;99.90
16700;DHT22;8466;52.286;21.124;2023-05-27T01:45:52;7.60;99.90
16700;DHT22;8466;52.286;21.124;2023-05-27T01:48:21;7.50;99.90
16700;DHT22;8466;52.286;21.124;2023-05-27T01:50:50;7.40;99.90
16700;DHT22;8466;52.286;21.124;2023-05-27T01:53:20;7.40;99.90
16700;DHT22;8466;52.286;21.124;2023-05-27T01:55:50;7.40;99.90
16700;DHT22;8466;52.286;21.124;2023-05-27T01:58:18;7.50;99.90
16700;DHT22;8466;52.286;21.124;2023-05-27T02:00:48;7.40;99.90
16700;DHT22;8466;52.286;21.124;2023-05-27T02:03:17;7.40;99.90
16700;DHT22;8466;52.286;21.124;2023-05-27T02:05:45;7.40;99.90
16700;DHT22;8466;52.286;21.124;2023-05-27T02:08:14;7.40;99.90
16700;DHT22;8466;52.286;21.124;2023-05-27T02:10:43;7.50;99.90
16700;DHT22;8466;52.286;21.124;2023-05-27T02:13:13;7.40;99.90
16700;DHT22;8466;52.286;21.124;2023-05-27T02:15:42;7.40;99.90
16700;DHT22;8466;52.286;21.124;2023-05-27T02:18:10;7.40;99.90
16700;DHT22;8466;52.286;21.124;2023-05-27T02:20:40;7.30;99.90
16700;DHT22;8466;52.286;21.124;2023-05-27T02:23:08;7.40;99.90
16700;DHT22;8466;52.286;21.124;2023-05-27T02:25:37;7.40;99.90
16700;DHT22;8466;52.286;21.124;2023-05-27T02:28:06;7.30;99.90
16700;DHT22;8466;52.286;21.124;2023-05-27T02:30:37;7.20;99.90
16700;DHT22;8466;52.286;21.124;2023-05-27T02:33:06;7.20;99.90
16700;DHT22;8466;52.286;21.124;2023-05-27T02:35:34;7.20;99.90
16700;DHT22;8466;52.286;21.124;2023-05-27T02:38:03;7.20;99.90
16700;DHT22;8466;52.286;21.124;2023-05-27T02:40:32;7.20;99.90
16700;DHT22;8466;52.286;21.124;2023-05-27T02:43:00;7.20;99.90
16700;DHT22;8466;52.286;21.124;2023-05-27T02:45:29;7.20;99.90
16700;DHT22;8466;52.286;21.124;2023-05-27T02:47:59;7.20;99.90
16700;DHT22;8466;52.286;21.124;2023-05-27T02:50:28;7.20;99.90
16700;DHT22;8466;52.286;21.124;2023-05-27T02:52:57;7.20;99.90
16700;DHT22;8466;52.286;21.124;2023-05-27T02:55:25;7.30;99.90
16700;DHT22;8466;52.286;21.124;2023-05-27T02:57:54;7.30;99.90
16700;DHT22;8466;52.286;21.124;2023-05-27T03:00:23;7.30;99.90
16700;DHT22;8466;52.286;21.124;2023-05-27T03:02:52;7.30;99.90
16700;DHT22;8466;52.286;21.124;2023-05-27T03:05:22;7.40;99.90
16700;DHT22;8466;52.286;21.124;2023-05-27T03:07:51;7.40;99.90
16700;DHT22;8466;52.286;21.124;2023-05-27T03:10:20;7.40;99.90
16700;DHT22;8466;52.286;21.124;2023-05-27T03:12:48;7.40;99.90
16700;DHT22;8466;52.286;21.124;2023-05-27T03:15:17;7.40;99.90
16700;DHT22;8466;52.286;21.124;2023-05-27T03:17:46;7.50;99.90
16700;DHT22;8466;52.286;21.124;2023-05-27T03:20:15;7.60;99.90
16700;DHT22;8466;52.286;21.124;2023-05-27T03:22:47;7.60;99.90
16700;DHT22;8466;52.286;21.124;2023-05-27T03:25:16;7.60;99.90
16700;DHT22;8466;52.286;21.124;2023-05-27T03:27:45;7.70;99.90
16700;DHT22;8466;52.286;21.124;2023-05-27T03:30:13;7.80;99.90
16700;DHT22;8466;52.286;21.124;2023-05-27T03:32:42;7.80;99.90
16700;DHT22;8466;52.286;21.124;2023-05-27T03:35:11;7.90;99.90
16700;DHT22;8466;52.286;21.124;2023-05-27T03:37:39;7.90;99.90
16700;DHT22;8466;52.286;21.124;2023-05-27T03:40:11;8.10;99.90
16700;DHT22;8466;52.286;21.124;2023-05-27T03:42:39;8.10;99.90
16700;DHT22;8466;52.286;21.124;2023-05-27T03:45:09;8.20;99.90
16700;DHT22;8466;52.286;21.124;2023-05-27T03:47:38;8.30;99.90
16700;DHT22;8466;52.286;21.124;2023-05-27T03:50:07;8.40;99.90
16700;DHT22;8466;52.286;21.124;2023-05-27T03:52:35;8.60;99.90
16700;DHT22;8466;52.286;21.124;2023-05-27T03:55:05;8.70;99.90
16700;DHT22;8466;52.286;21.124;2023-05-27T03:57:35;8.90;99.90
16700;DHT22;8466;52.286;21.124;2023-05-27T04:00:04;9.00;99.90
16700;DHT22;8466;52.286;21.124;2023-05-27T04:02:35;9.10;99.90
16700;DHT22;8466;52.286;21.124;2023-05-27T04:05:04;9.20;99.90
16700;DHT22;8466;52.286;21.124;2023-05-27T04:07:33;9.30;99.90
16700;DHT22;8466;52.286;21.124;2023-05-27T04:10:02;9.50;99.90
16700;DHT22;8466;52.286;21.124;2023-05-27T04:12:31;10.10;99.90
16700;DHT22;8466;52.286;21.124;2023-05-27T04:15:01;11.30;99.90
16700;DHT22;8466;52.286;21.124;2023-05-27T04:17:31;12.60;99.90
16700;DHT22;8466;52.286;21.124;2023-05-27T04:20:00;13.70;99.90
16700;DHT22;8466;52.286;21.124;2023-05-27T04:22:28;14.80;99.90
16700;DHT22;8466;52.286;21.124;2023-05-27T04:24:57;15.40;99.90
16700;DHT22;8466;52.286;21.124;2023-05-27T04:27:26;15.90;99.90
16700;DHT22;8466;52.286;21.124;2023-05-27T04:29:54;16.30;99.90
16700;DHT22;8466;52.286;21.124;2023-05-27T04:32:27;16.40;99.90
16700;DHT22;8466;52.286;21.124;2023-05-27T04:34:59;16.30;99.90
16700;DHT22;8466;52.286;21.124;2023-05-27T04:37:28;16.10;99.90
16700;DHT22;8466;52.286;21.124;2023-05-27T04:39:57;16.20;99.90
16700;DHT22;8466;52.286;21.124;2023-05-27T04:42:25;16.40;99.90
16700;DHT22;8466;52.286;21.124;2023-05-27T04:44:54;16.40;99.90
16700;DHT22;8466;52.286;21.124;2023-05-27T04:47:23;16.30;99.90
16700;DHT22;8466;52.286;21.124;2023-05-27T04:49:53;15.70;99.90
16700;DHT22;8466;52.286;21.124;2023-05-27T04:52:22;14.90;99.90
16700;DHT22;8466;52.286;21.124;2023-05-27T04:54:50;14.10;99.90
16700;DHT22;8466;52.286;21.124;2023-05-27T04:57:21;13.40;99.90
16700;DHT22;8466;52.286;21.124;2023-05-27T04:59:50;12.80;99.90
16700;DHT22;8466;52.286;21.124;2023-05-27T05:02:45;12.60;99.90
16700;DHT22;8466;52.286;21.124;2023-05-27T05:05:17;12.30;99.90
16700;DHT22;8466;52.286;21.124;2023-05-27T05:07:46;12.10;99.90
16700;DHT22;8466;52.286;21.124;2023-05-27T05:10:14;12.00;99.90
16700;DHT22;8466;52.286;21.124;2023-05-27T05:12:43;11.90;99.90
16700;DHT22;8466;52.286;21.124;2023-05-27T05:15:12;11.70;99.90
16700;DHT22;8466;52.286;21.124;2023-05-27T05:17:41;11.60;99.90
16700;DHT22;8466;52.286;21.124;2023-05-27T05:20:11;11.50;99.90
16700;DHT22;8466;52.286;21.124;2023-05-27T05:22:42;11.50;99.90
16700;DHT22;8466;52.286;21.124;2023-05-27T05:25:10;11.50;99.90
16700;DHT22;8466;52.286;21.124;2023-05-27T05:27:39;11.40;99.90
16700;DHT22;8466;52.286;21.124;2023-05-27T05:30:08;11.50;99.90
16700;DHT22;8466;52.286;21.124;2023-05-27T05:32:37;11.50;99.90
16700;DHT22;8466;52.286;21.124;2023-05-27T05:35:06;11.60;99.90
16700;DHT22;8466;52.286;21.124;2023-05-27T05:37:35;11.60;99.90
16700;DHT22;8466;52.286;21.124;2023-05-27T05:40:06;11.60;99.90
16700;DHT22;8466;52.286;21.124;2023-05-27T05:42:35;11.70;99.90
16700;DHT22;8466;52.286;21.124;2023-05-27T05:45:04;11.80;99.90
16700;DHT22;8466;52.286;21.124;2023-05-27T05:47:33;11.80;99.90
16700;DHT22;8466;52.286;21.124;2023-05-27T05:50:02;11.90;99.90
16700;DHT22;8466;52.286;21.124;2023-05-27T05:52:31;11.90;99.90
16700;DHT22;8466;52.286;21.124;2023-05-27T05:55:01;11.80;99.90
16700;DHT22;8466;52.286;21.124;2023-05-27T05:57:31;11.80;99.90
16700;DHT22;8466;52.286;21.124;2023-05-27T06:00:03;11.90;99.90
16700;DHT22;8466;52.286;21.124;2023-05-27T06:02:32;12.00;99.90
16700;DHT22;8466;52.286;21.124;2023-05-27T06:05:01;12.20;99.90
16700;DHT22;8466;52.286;21.124;2023-05-27T06:07:30;12.30;99.90
16700;DHT22;8466;52.286;21.124;2023-05-27T06:09:58;12.40;99.90
16700;DHT22;8466;52.286;21.124;2023-05-27T06:12:27;12.60;99.90
16700;DHT22;8466;52.286;21.124;2023-05-27T06:14:57;12.60;99.90
16700;DHT22;8466;52.286;21.124;2023-05-27T06:17:26;12.70;99.90
16700;DHT22;8466;52.286;21.124;2023-05-27T06:19:55;12.70;99.90
16700;DHT22;8466;52.286;21.124;2023-05-27T06:22:23;12.80;99.90
16700;DHT22;8466;52.286;21.124;2023-05-27T06:24:52;12.90;99.90
16700;DHT22;8466;52.286;21.124;2023-05-27T06:27:23;13.00;99.90
16700;DHT22;8466;52.286;21.124;2023-05-27T06:30:02;13.00;99.90
16700;DHT22;8466;52.286;21.124;2023-05-27T06:32:31;13.10;99.90
16700;DHT22;8466;52.286;21.124;2023-05-27T06:35:00;13.10;99.90
16700;DHT22;8466;52.286;21.124;2023-05-27T06:37:29;13.20;99.90
16700;DHT22;8466;52.286;21.124;2023-05-27T06:39:57;13.30;99.90
16700;DHT22;8466;52.286;21.124;2023-05-27T06:42:26;13.30;99.90
16700;DHT22;8466;52.286;21.124;2023-05-27T06:44:55;13.40;99.90
16700;DHT22;8466;52.286;21.124;2023-05-27T06:47:25;13.50;99.90
16700;DHT22;8466;52.286;21.124;2023-05-27T06:49:53;13.50;99.90
16700;DHT22;8466;52.286;21.124;2023-05-27T06:52:22;13.20;99.90
16700;DHT22;8466;52.286;21.124;2023-05-27T06:54:51;13.70;99.90
16700;DHT22;8466;52.286;21.124;2023-05-27T06:57:19;13.70;99.90
16700;DHT22;8466;52.286;21.124;2023-05-27T06:59:48;13.90;99.90
16700;DHT22;8466;52.286;21.124;2023-05-27T07:02:17;13.90;99.90
16700;DHT22;8466;52.286;21.124;2023-05-27T07:04:47;14.00;99.90
16700;DHT22;8466;52.286;21.124;2023-05-27T07:07:16;14.00;99.90
16700;DHT22;8466;52.286;21.124;2023-05-27T07:09:44;14.10;99.90
16700;DHT22;8466;52.286;21.124;2023-05-27T07:12:13;14.00;99.90
16700;DHT22;8466;52.286;21.124;2023-05-27T07:14:42;14.00;99.90
16700;DHT22;8466;52.286;21.124;2023-05-27T07:17:10;14.10;99.80
16700;DHT22;8466;52.286;21.124;2023-05-27T07:19:39;14.20;99.40
16700;DHT22;8466;52.286;21.124;2023-05-27T07:22:09;14.30;98.20
16700;DHT22;8466;52.286;21.124;2023-05-27T07:24:38;14.20;98.70
16700;DHT22;8466;52.286;21.124;2023-05-27T07:27:06;14.30;98.30
16700;DHT22;8466;52.286;21.124;2023-05-27T07:29:35;14.40;97.40
16700;DHT22;8466;52.286;21.124;2023-05-27T07:32:04;14.50;97.80
16700;DHT22;8466;52.286;21.124;2023-05-27T07:34:33;14.60;98.00
16700;DHT22;8466;52.286;21.124;2023-05-27T07:37:01;14.60;98.10
16700;DHT22;8466;52.286;21.124;2023-05-27T07:39:32;14.70;98.00
16700;DHT22;8466;52.286;21.124;2023-05-27T07:42:00;14.80;97.20
16700;DHT22;8466;52.286;21.124;2023-05-27T07:44:29;14.80;97.40
16700;DHT22;8466;52.286;21.124;2023-05-27T07:46:58;14.80;96.60
16700;DHT22;8466;52.286;21.124;2023-05-27T07:49:28;14.80;97.10
16700;DHT22;8466;52.286;21.124;2023-05-27T07:51:58;14.80;97.30
16700;DHT22;8466;52.286;21.124;2023-05-27T07:54:26;14.90;96.70
16700;DHT22;8466;52.286;21.124;2023-05-27T07:56:57;15.00;96.20
16700;DHT22;8466;52.286;21.124;2023-05-27T07:59:26;15.20;96.40
16700;DHT22;8466;52.286;21.124;2023-05-27T08:01:56;15.30;96.00
16700;DHT22;8466;52.286;21.124;2023-05-27T08:04:24;15.40;95.80
16700;DHT22;8466;52.286;21.124;2023-05-27T08:06:54;15.50;95.60
16700;DHT22;8466;52.286;21.124;2023-05-27T08:09:22;15.60;94.60
16700;DHT22;8466;52.286;21.124;2023-05-27T08:11:51;15.60;94.20
16700;DHT22;8466;52.286;21.124;2023-05-27T08:14:21;15.50;94.30
16700;DHT22;8466;52.286;21.124;2023-05-27T08:16:51;15.60;94.70
16700;DHT22;8466;52.286;21.124;2023-05-27T08:19:20;15.60;94.60
16700;DHT22;8466;52.286;21.124;2023-05-27T08:21:49;15.60;93.00
16700;DHT22;8466;52.286;21.124;2023-05-27T08:24:18;15.60;93.50
16700;DHT22;8466;52.286;21.124;2023-05-27T08:26:49;15.70;92.00
16700;DHT22;8466;52.286;21.124;2023-05-27T08:29:18;15.70;91.60
16700;DHT22;8466;52.286;21.124;2023-05-27T08:31:49;15.70;92.10
16700;DHT22;8466;52.286;21.124;2023-05-27T08:34:20;15.60;90.40
16700;DHT22;8466;52.286;21.124;2023-05-27T08:36:49;15.50;91.10
16700;DHT22;8466;52.286;21.124;2023-05-27T08:39:18;15.60;90.90
16700;DHT22;8466;52.286;21.124;2023-05-27T08:41:47;15.70;90.30
16700;DHT22;8466;52.286;21.124;2023-05-27T08:44:16;15.70;89.50
16700;DHT22;8466;52.286;21.124;2023-05-27T08:46:50;15.70;88.90
16700;DHT22;8466;52.286;21.124;2023-05-27T08:49:19;15.80;86.60
16700;DHT22;8466;52.286;21.124;2023-05-27T08:51:48;15.80;85.10
16700;DHT22;8466;52.286;21.124;2023-05-27T08:54:21;15.90;84.80
16700;DHT22;8466;52.286;21.124;2023-05-27T08:56:50;15.80;85.70
16700;DHT22;8466;52.286;21.124;2023-05-27T08:59:21;15.80;84.60
16700;DHT22;8466;52.286;21.124;2023-05-27T09:01:52;15.90;84.10
16700;DHT22;8466;52.286;21.124;2023-05-27T09:04:22;15.90;83.50
16700;DHT22;8466;52.286;21.124;2023-05-27T09:06:51;16.00;82.60
16700;DHT22;8466;52.286;21.124;2023-05-27T09:09:19;16.10;81.80
16700;DHT22;8466;52.286;21.124;2023-05-27T09:11:48;16.20;79.80
16700;DHT22;8466;52.286;21.124;2023-05-27T09:14:20;16.20;79.70
16700;DHT22;8466;52.286;21.124;2023-05-27T09:16:51;16.30;78.40
16700;DHT22;8466;52.286;21.124;2023-05-27T09:19:20;16.40;76.20
16700;DHT22;8466;52.286;21.124;2023-05-27T09:21:51;16.30;74.80
16700;DHT22;8466;52.286;21.124;2023-05-27T09:24:22;16.30;76.10
16700;DHT22;8466;52.286;21.124;2023-05-27T09:26:51;16.40;73.10
16700;DHT22;8466;52.286;21.124;2023-05-27T09:29:23;16.50;71.30
16700;DHT22;8466;52.286;21.124;2023-05-27T09:31:55;16.60;70.50
16700;DHT22;8466;52.286;21.124;2023-05-27T09:34:24;16.60;70.40
16700;DHT22;8466;52.286;21.124;2023-05-27T09:36:56;16.60;68.70
16700;DHT22;8466;52.286;21.124;2023-05-27T09:39:26;16.70;67.80
16700;DHT22;8466;52.286;21.124;2023-05-27T09:41:55;16.60;69.90
16700;DHT22;8466;52.286;21.124;2023-05-27T09:44:28;16.50;68.60
16700;DHT22;8466;52.286;21.124;2023-05-27T09:47:01;16.50;67.90
16700;DHT22;8466;52.286;21.124;2023-05-27T09:49:32;16.70;67.50
16700;DHT22;8466;52.286;21.124;2023-05-27T09:52:02;16.80;66.30
16700;DHT22;8466;52.286;21.124;2023-05-27T09:54:32;16.70;64.90
16700;DHT22;8466;52.286;21.124;2023-05-27T09:57:04;16.60;67.60
16700;DHT22;8466;52.286;21.124;2023-05-27T09:59:34;16.70;66.30
16700;DHT22;8466;52.286;21.124;2023-05-27T10:02:04;16.70;66.90
16700;DHT22;8466;52.286;21.124;2023-05-27T10:04:35;16.80;64.60
16700;DHT22;8466;52.286;21.124;2023-05-27T10:07:04;16.80;65.00
16700;DHT22;8466;52.286;21.124;2023-05-27T10:09:35;16.90;65.40
16700;DHT22;8466;52.286;21.124;2023-05-27T10:12:05;17.00;64.50
16700;DHT22;8466;52.286;21.124;2023-05-27T10:14:34;17.10;64.00
16700;DHT22;8466;52.286;21.124;2023-05-27T10:17:05;17.00;64.00
16700;DHT22;8466;52.286;21.124;2023-05-27T10:19:34;17.10;63.70
16700;DHT22;8466;52.286;21.124;2023-05-27T10:22:10;17.00;65.20
16700;DHT22;8466;52.286;21.124;2023-05-27T10:24:39;17.10;66.10
16700;DHT22;8466;52.286;21.124;2023-05-27T10:27:08;17.20;63.50
16700;DHT22;8466;52.286;21.124;2023-05-27T10:29:38;17.20;64.30
16700;DHT22;8466;52.286;21.124;2023-05-27T10:32:09;17.20;64.90
16700;DHT22;8466;52.286;21.124;2023-05-27T10:34:41;17.30;65.40
16700;DHT22;8466;52.286;21.124;2023-05-27T10:37:10;17.40;61.80
16700;DHT22;8466;52.286;21.124;2023-05-27T10:39:55;17.40;61.70
16700;DHT22;8466;52.286;21.124;2023-05-27T10:42:25;17.40;64.20
16700;DHT22;8466;52.286;21.124;2023-05-27T10:45:04;17.40;64.30
16700;DHT22;8466;52.286;21.124;2023-05-27T10:47:36;17.40;65.00
16700;DHT22;8466;52.286;21.124;2023-05-27T10:50:12;17.50;65.90
16700;DHT22;8466;52.286;21.124;2023-05-27T10:52:42;17.50;65.80
16700;DHT22;8466;52.286;21.124;2023-05-27T10:55:11;17.50;65.40
16700;DHT22;8466;52.286;21.124;2023-05-27T10:57:41;17.40;66.70
16700;DHT22;8466;52.286;21.124;2023-05-27T11:00:14;17.50;66.90
16700;DHT22;8466;52.286;21.124;2023-05-27T11:02:47;17.60;62.40
16700;DHT22;8466;52.286;21.124;2023-05-27T11:05:19;17.70;59.60
16700;DHT22;8466;52.286;21.124;2023-05-27T11:07:48;17.70;59.50
16700;DHT22;8466;52.286;21.124;2023-05-27T11:10:17;17.70;59.10
16700;DHT22;8466;52.286;21.124;2023-05-27T11:12:45;17.60;59.10
16700;DHT22;8466;52.286;21.124;2023-05-27T11:15:16;17.60;58.60
16700;DHT22;8466;52.286;21.124;2023-05-27T11:17:48;17.60;58.60
16700;DHT22;8466;52.286;21.124;2023-05-27T11:20:17;17.70;58.80
16700;DHT22;8466;52.286;21.124;2023-05-27T11:22:51;17.70;58.20
16700;DHT22;8466;52.286;21.124;2023-05-27T11:25:20;17.60;58.90
16700;DHT22;8466;52.286;21.124;2023-05-27T11:27:50;17.60;60.80
16700;DHT22;8466;52.286;21.124;2023-05-27T11:30:23;17.80;57.80
16700;DHT22;8466;52.286;21.124;2023-05-27T11:33:02;18.00;57.50
16700;DHT22;8466;52.286;21.124;2023-05-27T11:35:31;18.00;56.40
16700;DHT22;8466;52.286;21.124;2023-05-27T11:38:01;18.00;56.20
16700;DHT22;8466;52.286;21.124;2023-05-27T11:40:34;17.90;55.70
16700;DHT22;8466;52.286;21.124;2023-05-27T11:43:04;17.80;57.20
16700;DHT22;8466;52.286;21.124;2023-05-27T11:45:36;17.90;56.40
16700;DHT22;8466;52.286;21.124;2023-05-27T11:48:09;17.90;55.80
16700;DHT22;8466;52.286;21.124;2023-05-27T11:50:38;17.90;57.00
16700;DHT22;8466;52.286;21.124;2023-05-27T11:53:07;18.00;56.30
16700;DHT22;8466;52.286;21.124;2023-05-27T11:55:35;18.10;55.80
16700;DHT22;8466;52.286;21.124;2023-05-27T11:58:07;18.30;55.80
16700;DHT22;8466;52.286;21.124;2023-05-27T12:00:36;18.20;54.80
16700;DHT22;8466;52.286;21.124;2023-05-27T12:03:12;18.30;55.20
16700;DHT22;8466;52.286;21.124;2023-05-27T12:05:44;18.10;55.10
16700;DHT22;8466;52.286;21.124;2023-05-27T12:08:13;18.20;55.00
16700;DHT22;8466;52.286;21.124;2023-05-27T12:10:42;18.20;55.20
16700;DHT22;8466;52.286;21.124;2023-05-27T12:13:11;18.20;54.90
16700;DHT22;8466;52.286;21.124;2023-05-27T12:15:40;18.00;54.60
16700;DHT22;8466;52.286;21.124;2023-05-27T12:18:10;18.00;56.30
16700;DHT22;8466;52.286;21.124;2023-05-27T12:20:39;18.10;56.10
16700;DHT22;8466;52.286;21.124;2023-05-27T12:23:08;18.20;55.10
16700;DHT22;8466;52.286;21.124;2023-05-27T12:25:37;18.10;55.50
16700;DHT22;8466;52.286;21.124;2023-05-27T12:28:07;18.20;56.20
16700;DHT22;8466;52.286;21.124;2023-05-27T12:30:36;18.30;55.40
16700;DHT22;8466;52.286;21.124;2023-05-27T12:33:06;18.30;54.90
16700;DHT22;8466;52.286;21.124;2023-05-27T12:35:36;18.40;54.40
16700;DHT22;8466;52.286;21.124;2023-05-27T12:38:05;18.40;54.60
16700;DHT22;8466;52.286;21.124;2023-05-27T12:40:34;18.40;54.80
16700;DHT22;8466;52.286;21.124;2023-05-27T12:43:03;18.40;55.30
16700;DHT22;8466;52.286;21.124;2023-05-27T12:45:32;18.40;55.70
16700;DHT22;8466;52.286;21.124;2023-05-27T12:48:01;18.50;54.80
16700;DHT22;8466;52.286;21.124;2023-05-27T12:50:31;18.60;55.10
16700;DHT22;8466;52.286;21.124;2023-05-27T12:53:05;18.60;54.60
16700;DHT22;8466;52.286;21.124;2023-05-27T12:55:36;18.50;55.00
16700;DHT22;8466;52.286;21.124;2023-05-27T12:58:05;18.50;54.90
16700;DHT22;8466;52.286;21.124;2023-05-27T13:00:34;18.60;54.50
16700;DHT22;8466;52.286;21.124;2023-05-27T13:03:06;18.50;54.50
16700;DHT22;8466;52.286;21.124;2023-05-27T13:05:38;18.50;54.00
16700;DHT22;8466;52.286;21.124;2023-05-27T13:08:08;18.40;54.20
16700;DHT22;8466;52.286;21.124;2023-05-27T13:10:38;18.40;53.90
16700;DHT22;8466;52.286;21.124;2023-05-27T13:13:08;18.40;54.60
16700;DHT22;8466;52.286;21.124;2023-05-27T13:15:38;18.40;54.80
16700;DHT22;8466;52.286;21.124;2023-05-27T13:18:09;18.40;53.90
16700;DHT22;8466;52.286;21.124;2023-05-27T13:20:39;18.40;53.50
16700;DHT22;8466;52.286;21.124;2023-05-27T13:23:09;18.50;55.30
16700;DHT22;8466;52.286;21.124;2023-05-27T13:25:39;18.50;54.80
16700;DHT22;8466;52.286;21.124;2023-05-27T13:28:14;18.50;55.40
16700;DHT22;8466;52.286;21.124;2023-05-27T13:30:44;18.60;55.90
16700;DHT22;8466;52.286;21.124;2023-05-27T13:33:15;18.70;54.90
16700;DHT22;8466;52.286;21.124;2023-05-27T13:35:45;18.70;55.10
16700;DHT22;8466;52.286;21.124;2023-05-27T13:38:16;18.90;55.80
16700;DHT22;8466;52.286;21.124;2023-05-27T13:40:45;18.70;56.10
16700;DHT22;8466;52.286;21.124;2023-05-27T13:43:16;18.70;56.20
16700;DHT22;8466;52.286;21.124;2023-05-27T13:45:46;18.70;56.00
16700;DHT22;8466;52.286;21.124;2023-05-27T13:48:15;18.80;56.50
16700;DHT22;8466;52.286;21.124;2023-05-27T13:50:44;18.90;56.30
16700;DHT22;8466;52.286;21.124;2023-05-27T13:53:13;18.90;55.60
16700;DHT22;8466;52.286;21.124;2023-05-27T13:55:43;19.00;56.10
16700;DHT22;8466;52.286;21.124;2023-05-27T13:58:13;18.90;55.10
16700;DHT22;8466;52.286;21.124;2023-05-27T14:00:42;18.90;56.00
16700;DHT22;8466;52.286;21.124;2023-05-27T14:03:11;18.80;55.80
16700;DHT22;8466;52.286;21.124;2023-05-27T14:05:40;18.90;56.70
16700;DHT22;8466;52.286;21.124;2023-05-27T14:08:14;19.00;56.50
16700;DHT22;8466;52.286;21.124;2023-05-27T14:10:54;19.10;55.00
16700;DHT22;8466;52.286;21.124;2023-05-27T14:13:23;19.10;55.00
16700;DHT22;8466;52.286;21.124;2023-05-27T14:15:57;19.10;55.20
16700;DHT22;8466;52.286;21.124;2023-05-27T14:18:26;19.10;55.30
16700;DHT22;8466;52.286;21.124;2023-05-27T14:20:54;19.10;55.00
16700;DHT22;8466;52.286;21.124;2023-05-27T14:23:23;19.10;55.40
16700;DHT22;8466;52.286;21.124;2023-05-27T14:25:53;19.20;55.60
16700;DHT22;8466;52.286;21.124;2023-05-27T14:28:22;19.30;54.60
16700;DHT22;8466;52.286;21.124;2023-05-27T14:30:51;19.40;55.30
16700;DHT22;8466;52.286;21.124;2023-05-27T14:33:20;19.40;54.50
16700;DHT22;8466;52.286;21.124;2023-05-27T14:35:49;19.30;55.30
16700;DHT22;8466;52.286;21.124;2023-05-27T14:38:18;19.30;55.60
16700;DHT22;8466;52.286;21.124;2023-05-27T14:40:47;19.40;55.00
16700;DHT22;8466;52.286;21.124;2023-05-27T14:43:18;19.50;54.60
16700;DHT22;8466;52.286;21.124;2023-05-27T14:45:47;19.40;55.80
16700;DHT22;8466;52.286;21.124;2023-05-27T14:48:16;19.60;54.80
16700;DHT22;8466;52.286;21.124;2023-05-27T14:50:45;19.80;54.90
16700;DHT22;8466;52.286;21.124;2023-05-27T14:53:14;20.20;53.60
16700;DHT22;8466;52.286;21.124;2023-05-27T14:55:43;20.40;53.60
16700;DHT22;8466;52.286;21.124;2023-05-27T14:58:13;20.80;53.20
16700;DHT22;8466;52.286;21.124;2023-05-27T15:00:44;20.90;52.30
16700;DHT22;8466;52.286;21.124;2023-05-27T15:03:13;21.00;52.00
16700;DHT22;8466;52.286;21.124;2023-05-27T15:05:42;21.20;52.60
16700;DHT22;8466;52.286;21.124;2023-05-27T15:08:11;21.40;52.50
16700;DHT22;8466;52.286;21.124;2023-05-27T15:10:43;21.70;52.50
16700;DHT22;8466;52.286;21.124;2023-05-27T15:13:13;21.80;52.50
16700;DHT22;8466;52.286;21.124;2023-05-27T15:15:43;22.00;51.70
16700;DHT22;8466;52.286;21.124;2023-05-27T15:18:12;22.10;51.00
16700;DHT22;8466;52.286;21.124;2023-05-27T15:20:41;22.00;50.70
16700;DHT22;8466;52.286;21.124;2023-05-27T15:23:10;21.90;50.90
16700;DHT22;8466;52.286;21.124;2023-05-27T15:25:39;21.90;51.20
16700;DHT22;8466;52.286;21.124;2023-05-27T15:28:08;22.00;50.90
16700;DHT22;8466;52.286;21.124;2023-05-27T15:30:38;22.20;50.50
16700;DHT22;8466;52.286;21.124;2023-05-27T15:33:09;22.30;49.40
16700;DHT22;8466;52.286;21.124;2023-05-27T15:35:38;22.20;50.40
16700;DHT22;8466;52.286;21.124;2023-05-27T15:38:08;22.20;50.60
16700;DHT22;8466;52.286;21.124;2023-05-27T15:40:41;22.30;49.50
16700;DHT22;8466;52.286;21.124;2023-05-27T15:43:11;22.30;49.60
16700;DHT22;8466;52.286;21.124;2023-05-27T15:45:42;22.30;50.00
16700;DHT22;8466;52.286;21.124;2023-05-27T15:48:30;22.20;49.60
16700;DHT22;8466;52.286;21.124;2023-05-27T15:50:59;21.90;50.50